الصفحة الرئيسية
METAR-TAF:

METAR-TAF

مطار :

مطار كونمينغ جانغشوي الدولي

كونمينغ, جمهورية الصين الشعبية

دائرة عرض: 25-01N, خط طول: 102-41E, ارتفاع: 1892 متر

مراقبة الطقس الحالي

تاريخ ووقت الإصدار 49 دقيقة قبل الساعة 18:00UTC
ريح 8 عقدة من الجنوب الغربي
درجة الحرارة 5°درجة مئوية
الرطوبة 81%
ضغط 1023 hPa
الرؤية 10 كم أو أكثر
الغيوم لا تقل 1500 م ولا وجود لمزنة ركامية السحاب الأسود

METAR: ZPPP 141800Z 22004MPS CAVOK 05/02 Q1023 NOSIG

زمن: 02:49 (18:49 UTC)

توقعات

تاريخ ووقت الإصدار 5ساعات و 44 دقيقة قبل الساعة 13:05UTC
التوقعات صالحة من14 الساعة 18 UTC إلى 15 الساعة 18 UTC
ريح 12 عقدة من الجنوب الغربي
الرؤية 10 كم أو أكثر
الغيوم لا تقل 1500 م ولا وجود لمزنة ركامية السحاب الأسود

TAF: ZPPP 141305Z 1418/1518 22006MPS CAVOK TX19/1508Z TN03/1423Z

أرصاد الطقس والتوقعات من أكثر من 4000 مطار (تقارير الطقس للمطار METAR والتنبؤ بالطقس بالمطارTAF).

المحطات المتاحة هي النقط الصفراء والحمراء على الخريطة.

حرك المؤشر فوق النقطة لمعرفة اسم المحطة.

ثم انقر لمعرفة أرصاد وتوقعات الطقس.

لتغيير الخارطة: اضغط على الأزرار الخضراء مع رمز الصليب الأسود للتكبير. على الزر الأخضر مع شرطة للتصغير، أو على الأسهم الخضراء للخرائط المجاورة.


METAR-TAF: